Time;durP1;ratioP1;P1;durP2;ratioP2;P2;SDS_P1;SDS_P2;PMS_P1;PMS_P2;Temp;Humidity;BMP_temperature;BMP_pressure;BME280_temperature;BME280_humidity;BME280_pressure;Samples;Min_cycle;Max_cycle;Signal;HPM_P1;HPM_P2
2021/05/06 00:00:10;;;;;;;2.30;2.10;;;5.50;99.90;;;;;;5073510;28;20611;-56
2021/05/06 00:02:56;;;;;;;5.37;2.93;;;5.50;99.90;;;;;;5073953;28;20232;-52
2021/05/06 00:06:03;;;;;;;5.20;2.63;;;5.40;99.90;;;;;;5073983;28;20188;-54
2021/05/06 00:08:38;;;;;;;3.40;2.90;;;5.40;99.90;;;;;;5073487;28;20266;-52
2021/05/06 00:11:34;;;;;;;4.63;2.70;;;5.40;99.90;;;;;;5073845;28;20184;-54
2021/05/06 00:30:54;;;;;;;2.80;2.57;;;5.40;99.90;;;;;;5073218;28;20285;-53
2021/05/06 00:33:22;;;;;;;2.97;2.60;;;5.20;99.90;;;;;;5073145;28;20660;-53
2021/05/06 00:35:50;;;;;;;2.83;2.50;;;5.20;99.90;;;;;;5073369;28;20227;-53
2021/05/06 00:38:19;;;;;;;3.23;2.23;;;5.20;99.90;;;;;;5073116;28;20664;-54
2021/05/06 00:40:58;;;;;;;4.57;2.60;;;5.30;99.90;;;;;;5073296;28;20411;-53
2021/05/06 00:43:55;;;;;;;2.87;2.53;;;5.40;99.90;;;;;;5073149;28;20267;-53
2021/05/06 00:46:44;;;;;;;3.23;2.93;;;5.50;99.90;;;;;;5073142;28;20195;-52
2021/05/06 00:55:02;;;;;;;4.07;2.90;;;5.50;99.90;;;;;;5010730;28;20733;-55
2021/05/06 00:57:35;;;;;;;3.23;2.67;;;5.50;99.90;;;;;;5061448;28;20298;-55
2021/05/06 01:00:18;;;;;;;3.27;2.83;;;5.50;99.90;;;;;;5072479;28;20284;-54
2021/05/06 01:03:12;;;;;;;3.17;2.30;;;5.50;99.90;;;;;;5072596;28;20310;-53
2021/05/06 01:05:42;;;;;;;3.63;2.70;;;5.40;99.90;;;;;;5072830;28;20221;-52
2021/05/06 01:08:13;;;;;;;6.37;3.13;;;5.30;99.90;;;;;;5072608;28;20314;-52
2021/05/06 01:11:01;;;;;;;3.60;2.73;;;5.20;99.90;;;;;;5072779;28;20212;-54
2021/05/06 01:13:30;;;;;;;3.50;3.20;;;5.20;99.90;;;;;;5072459;28;20663;-54
2021/05/06 01:15:57;;;;;;;4.53;2.83;;;5.10;99.90;;;;;;5072436;28;20238;-54
2021/05/06 01:18:25;;;;;;;3.60;3.00;;;5.20;99.90;;;;;;5072488;28;20223;-53
2021/05/06 01:20:58;;;;;;;3.93;2.90;;;5.10;99.90;;;;;;5072492;28;20640;-52
2021/05/06 01:23:27;;;;;;;3.30;2.83;;;5.10;99.90;;;;;;5072701;28;20188;-53
2021/05/06 01:25:57;;;;;;;3.43;3.10;;;4.90;99.90;;;;;;5072121;28;20256;-53
2021/05/06 01:28:27;;;;;;;3.40;3.10;;;4.90;99.90;;;;;;5072444;28;20305;-53
2021/05/06 01:31:00;;;;;;;4.17;3.30;;;4.90;99.90;;;;;;5072090;28;20670;-53
2021/05/06 01:33:32;;;;;;;4.30;3.50;;;4.90;99.90;;;;;;5072616;28;20187;-51
2021/05/06 01:36:03;;;;;;;3.67;3.37;;;4.70;99.90;;;;;;5072375;28;20694;-54
2021/05/06 01:38:48;;;;;;;5.53;3.83;;;4.70;99.90;;;;;;5072561;28;20183;-51
2021/05/06 01:41:41;;;;;;;4.90;3.53;;;4.60;99.90;;;;;;5072473;28;20191;-50
2021/05/06 01:44:11;;;;;;;5.53;3.60;;;4.50;99.90;;;;;;5072096;28;20284;-53
2021/05/06 01:47:06;;;;;;;5.03;3.93;;;4.50;99.90;;;;;;5072314;28;20204;-54
2021/05/06 01:49:56;;;;;;;4.37;3.93;;;4.50;99.90;;;;;;5072150;28;20186;-53
2021/05/06 02:00:43;;;;;;;5.13;4.00;;;4.80;99.90;;;;;;5048067;28;20264;-52
2021/05/06 02:03:10;;;;;;;4.90;4.40;;;4.90;99.90;;;;;;5051889;28;20659;-50
2021/05/06 02:05:37;;;;;;;5.80;4.03;;;4.90;99.90;;;;;;5052177;28;20204;-54
2021/05/06 02:08:05;;;;;;;5.40;4.27;;;4.80;99.90;;;;;;5052202;28;20219;-53
2021/05/06 02:10:32;;;;;;;4.60;4.20;;;4.80;99.90;;;;;;5051948;28;20205;-53
2021/05/06 02:12:59;;;;;;;4.73;3.83;;;4.60;99.90;;;;;;5052363;28;20281;-56
2021/05/06 02:15:28;;;;;;;4.73;4.00;;;4.60;99.90;;;;;;5055798;28;20233;-54
2021/05/06 02:17:57;;;;;;;4.67;4.27;;;4.50;99.90;;;;;;5055913;28;20199;-54
2021/05/06 02:20:24;;;;;;;4.80;4.30;;;4.40;99.90;;;;;;5055739;28;20202;-53
2021/05/06 02:22:51;;;;;;;4.93;4.43;;;4.50;99.90;;;;;;5055436;28;20215;-55
2021/05/06 02:25:20;;;;;;;6.37;5.00;;;4.50;99.90;;;;;;5055739;28;20232;-54
2021/05/06 02:27:47;;;;;;;5.57;4.47;;;4.40;99.90;;;;;;5055242;28;20757;-52
2021/05/06 02:30:16;;;;;;;4.87;4.43;;;4.20;99.90;;;;;;5055358;28;20290;-53
2021/05/06 02:32:44;;;;;;;5.67;5.13;;;4.20;99.90;;;;;;5055643;28;20213;-56
2021/05/06 02:35:12;;;;;;;4.77;4.27;;;4.30;99.90;;;;;;5055338;28;20346;-53
2021/05/06 02:37:39;;;;;;;5.60;4.87;;;4.40;99.90;;;;;;5055515;28;20203;-54
2021/05/06 02:40:08;;;;;;;5.40;4.90;;;4.30;99.90;;;;;;5055452;28;20290;-54
2021/05/06 02:42:36;;;;;;;6.10;4.87;;;4.30;99.90;;;;;;5055472;28;20209;-55
2021/05/06 02:45:03;;;;;;;4.70;4.30;;;4.20;99.90;;;;;;5054781;28;20293;-55
2021/05/06 02:47:30;;;;;;;6.03;5.20;;;4.20;99.90;;;;;;5054805;28;20225;-54
2021/05/06 02:49:57;;;;;;;6.70;5.10;;;4.20;99.90;;;;;;5055165;28;20209;-54
2021/05/06 02:52:30;;;;;;;5.00;4.50;;;4.10;99.90;;;;;;5055171;28;20240;-52
2021/05/06 02:55:03;;;;;;;7.00;5.03;;;4.20;99.90;;;;;;5054800;28;20543;-52
2021/05/06 02:57:38;;;;;;;5.07;4.57;;;4.20;99.90;;;;;;5055235;28;20283;-52
2021/05/06 03:02:56;;;;;;;5.07;4.53;;;4.10;99.90;;;;;;5054916;28;20224;-54
2021/05/06 03:05:26;;;;;;;4.90;4.40;;;4.10;99.90;;;;;;5054855;28;20560;-55
2021/05/06 03:08:01;;;;;;;5.57;4.17;;;4.10;99.90;;;;;;5054976;28;20310;-56
2021/05/06 03:10:39;;;;;;;4.47;4.07;;;4.10;99.90;;;;;;5054967;28;20186;-54
2021/05/06 03:22:39;;;;;;;4.77;4.37;;;4.30;99.90;;;;;;5054500;28;20226;-55
2021/05/06 03:24:21;;;;;;;4.73;4.20;;;4.30;99.90;;;;;;5054257;28;20302;-53
2021/05/06 03:26:48;;;;;;;4.93;4.33;;;4.40;99.90;;;;;;5054153;28;20237;-55
2021/05/06 03:29:19;;;;;;;4.63;4.00;;;4.30;99.90;;;;;;5054210;28;20291;-52
2021/05/06 03:31:59;;;;;;;6.07;4.43;;;4.40;99.90;;;;;;5054481;28;20273;-53
2021/05/06 03:34:49;;;;;;;4.77;4.33;;;4.30;99.90;;;;;;5054184;28;20700;-51
2021/05/06 03:43:07;;;;;;;5.13;4.10;;;4.20;99.90;;;;;;5054193;28;20237;-51
2021/05/06 03:46:38;;;;;;;4.87;4.03;;;4.30;99.90;;;;;;5054050;28;20217;-50
2021/05/06 03:49:32;;;;;;;4.20;3.67;;;4.30;99.90;;;;;;5054150;28;20225;-51
2021/05/06 04:03:28;;;;;;;4.30;3.90;;;4.60;99.90;;;;;;5053651;28;20232;-51
2021/05/06 04:15:00;;;;;;;3.90;3.50;;;4.70;99.90;;;;;;5053638;28;20274;-53
2021/05/06 04:17:40;;;;;;;4.47;3.87;;;4.70;99.90;;;;;;5053396;28;20184;-53
2021/05/06 04:25:49;;;;;;;5.73;3.70;;;4.90;99.90;;;;;;5053596;28;20242;-54
2021/05/06 04:31:14;;;;;;;4.67;3.90;;;5.10;99.90;;;;;;5052761;28;20633;-55
2021/05/06 04:36:52;;;;;;;4.07;3.60;;;5.40;99.90;;;;;;5052610;28;20182;-54
2021/05/06 04:39:27;;;;;;;3.90;3.50;;;5.60;99.90;;;;;;5053008;28;20277;-53
2021/05/06 04:42:03;;;;;;;4.97;3.67;;;5.80;99.90;;;;;;5052835;28;20658;-54
2021/05/06 04:55:30;;;;;;;4.37;3.47;;;6.40;99.90;;;;;;5053012;28;20192;-56
2021/05/06 05:05:58;;;;;;;3.43;3.13;;;9.10;99.90;;;;;;5052901;28;20255;-51
2021/05/06 05:08:27;;;;;;;3.37;3.00;;;9.50;99.90;;;;;;5052630;28;20316;-53
2021/05/06 05:11:22;;;;;;;3.43;3.13;;;9.50;99.90;;;;;;5052507;28;20233;-54
2021/05/06 05:14:13;;;;;;;8.30;5.83;;;9.70;99.90;;;;;;5052464;28;20212;-54
2021/05/06 05:19:38;;;;;;;4.03;3.23;;;9.20;99.90;;;;;;5052183;28;20641;-53
2021/05/06 05:24:56;;;;;;;4.43;3.30;;;8.30;99.90;;;;;;5052419;28;20225;-54
2021/05/06 05:27:23;;;;;;;4.57;3.57;;;8.10;99.90;;;;;;5051597;28;20335;-54
2021/05/06 05:29:52;;;;;;;3.77;3.33;;;8.00;99.90;;;;;;5052013;28;20205;-54
2021/05/06 05:32:19;;;;;;;3.50;3.13;;;8.00;99.90;;;;;;5052391;28;20294;-55
2021/05/06 05:34:52;;;;;;;4.10;3.40;;;8.00;99.90;;;;;;5052417;28;20208;-54
2021/05/06 05:37:25;;;;;;;3.20;2.83;;;8.10;99.90;;;;;;5052304;28;20291;-56
2021/05/06 05:40:14;;;;;;;3.40;3.10;;;8.10;99.90;;;;;;5052198;28;20860;-54
2021/05/06 05:42:52;;;;;;;3.27;2.97;;;8.00;99.90;;;;;;5050099;28;20661;-53
2021/05/06 05:56:53;;;;;;;3.27;2.57;;;8.70;99.90;;;;;;5042220;28;20612;-51
2021/05/06 05:59:21;;;;;;;3.57;2.90;;;8.60;99.90;;;;;;5052697;28;20699;-56
2021/05/06 06:01:49;;;;;;;3.40;3.10;;;8.60;99.90;;;;;;5053402;28;20295;-55
2021/05/06 06:04:16;;;;;;;4.00;3.00;;;8.60;99.90;;;;;;5053057;28;20201;-54
2021/05/06 06:06:43;;;;;;;3.10;2.80;;;8.50;99.90;;;;;;5052739;28;20205;-54
2021/05/06 06:09:10;;;;;;;4.00;3.00;;;8.40;99.90;;;;;;5052963;28;20264;-56
2021/05/06 06:11:37;;;;;;;4.20;2.87;;;8.40;99.90;;;;;;5052921;28;20303;-57
2021/05/06 06:14:06;;;;;;;3.47;2.97;;;8.50;99.90;;;;;;5052981;28;20256;-55
2021/05/06 06:16:35;;;;;;;3.20;2.90;;;8.60;99.90;;;;;;5052528;28;20330;-54
2021/05/06 06:19:04;;;;;;;4.50;2.90;;;8.70;99.90;;;;;;5052849;28;20201;-55
2021/05/06 06:21:34;;;;;;;2.77;2.50;;;8.80;99.90;;;;;;5052687;28;20242;-54
2021/05/06 06:24:01;;;;;;;3.20;2.90;;;8.70;99.90;;;;;;5053897;28;20198;-54
2021/05/06 06:26:28;;;;;;;3.40;2.90;;;8.60;99.90;;;;;;5052516;28;20230;-55
2021/05/06 06:29:03;;;;;;;3.10;2.90;;;8.60;99.90;;;;;;5052242;28;20217;-55
2021/05/06 06:31:33;;;;;;;3.70;3.00;;;8.60;99.90;;;;;;5052173;28;20258;-55
2021/05/06 06:34:01;;;;;;;3.97;3.00;;;8.50;99.90;;;;;;5052319;28;20573;-54
2021/05/06 06:36:29;;;;;;;4.40;3.50;;;8.50;99.90;;;;;;5052076;28;20222;-54
2021/05/06 06:38:55;;;;;;;6.50;3.40;;;8.50;99.90;;;;;;5051834;28;20278;-53
2021/05/06 06:41:22;;;;;;;6.40;5.80;;;8.70;99.90;;;;;;5052237;28;20251;-54
2021/05/06 06:43:51;;;;;;;6.20;5.47;;;8.80;99.90;;;;;;5052249;28;20236;-56
2021/05/06 06:46:18;;;;;;;3.77;3.10;;;8.80;99.90;;;;;;5052042;28;20561;-54
2021/05/06 06:48:46;;;;;;;4.73;3.50;;;8.90;99.90;;;;;;5051580;28;20705;-55
2021/05/06 06:51:14;;;;;;;3.87;2.90;;;9.20;99.90;;;;;;5051742;28;20201;-55
2021/05/06 06:53:41;;;;;;;3.13;2.60;;;9.60;99.90;;;;;;5052101;28;20296;-55
2021/05/06 06:56:07;;;;;;;5.10;3.40;;;9.70;99.90;;;;;;5052022;28;20219;-57
2021/05/06 06:58:35;;;;;;;3.57;2.80;;;9.90;99.90;;;;;;5051704;28;20197;-56
2021/05/06 07:01:02;;;;;;;3.37;3.07;;;9.80;99.90;;;;;;5051450;28;20213;-52
2021/05/06 07:03:28;;;;;;;3.00;2.70;;;9.80;99.90;;;;;;5051656;28;20209;-54
2021/05/06 07:05:56;;;;;;;3.07;2.77;;;9.70;99.90;;;;;;5051682;28;20292;-51
2021/05/06 07:08:25;;;;;;;3.20;2.80;;;9.90;99.90;;;;;;5051666;28;20300;-55
2021/05/06 07:10:54;;;;;;;3.70;2.80;;;10.00;99.90;;;;;;5051683;28;20295;-54
2021/05/06 07:13:22;;;;;;;2.77;2.53;;;10.00;99.90;;;;;;5051292;28;20303;-50
2021/05/06 07:15:51;;;;;;;3.43;3.00;;;10.00;99.90;;;;;;5051461;28;20205;-55
2021/05/06 07:18:19;;;;;;;4.73;3.30;;;10.00;99.90;;;;;;5051538;28;20591;-54
2021/05/06 07:20:47;;;;;;;3.13;2.60;;;10.00;99.90;;;;;;5051475;28;20212;-55
2021/05/06 07:23:17;;;;;;;2.93;2.50;;;10.00;99.90;;;;;;5050834;28;20205;-56
2021/05/06 07:25:49;;;;;;;3.70;2.30;;;9.80;99.90;;;;;;5051233;28;20281;-53
2021/05/06 07:28:20;;;;;;;3.33;2.53;;;9.60;99.90;;;;;;5051109;28;20308;-58
2021/05/06 07:30:49;;;;;;;2.90;2.50;;;9.70;99.90;;;;;;5050907;28;20201;-54
2021/05/06 07:33:20;;;;;;;4.17;2.00;;;9.80;99.90;;;;;;5050612;28;20194;-56
2021/05/06 07:35:49;;;;;;;2.63;2.07;;;10.10;99.90;;;;;;5050795;28;20723;-53
2021/05/06 07:38:19;;;;;;;2.40;2.20;;;10.20;99.90;;;;;;5050650;28;20201;-53
2021/05/06 07:40:50;;;;;;;2.07;1.87;;;10.10;99.90;;;;;;5050875;28;20296;-53
2021/05/06 07:43:20;;;;;;;2.27;1.60;;;10.20;99.90;;;;;;5050704;28;20189;-56
2021/05/06 07:45:49;;;;;;;3.67;1.83;;;10.20;99.90;;;;;;5050885;28;20267;-54
2021/05/06 07:48:18;;;;;;;2.10;1.90;;;10.30;99.90;;;;;;5050806;28;20221;-53
2021/05/06 07:50:48;;;;;;;2.60;1.90;;;10.30;99.90;;;;;;5050520;28;20335;-61
2021/05/06 07:53:24;;;;;;;1.83;1.60;;;10.30;99.90;;;;;;5050715;28;20189;-64
2021/05/06 07:55:55;;;;;;;1.97;1.57;;;10.20;99.90;;;;;;5050700;28;20531;-63
2021/05/06 07:58:22;;;;;;;3.40;1.70;;;10.20;99.90;;;;;;5050374;28;20201;-61
2021/05/06 08:00:49;;;;;;;3.73;1.60;;;10.10;99.90;;;;;;5050523;28;20317;-60
2021/05/06 08:03:16;;;;;;;5.80;1.80;;;10.00;99.90;;;;;;5050434;28;20205;-62
2021/05/06 08:05:43;;;;;;;2.73;1.77;;;10.10;99.90;;;;;;5050695;28;20216;-62
2021/05/06 08:08:10;;;;;;;5.07;1.77;;;10.40;99.90;;;;;;5050499;28;20225;-65
2021/05/06 08:10:37;;;;;;;2.23;1.53;;;10.60;99.90;;;;;;5049873;28;20232;-64
2021/05/06 08:13:05;;;;;;;2.00;1.30;;;10.70;99.90;;;;;;5049993;28;20696;-64
2021/05/06 08:15:32;;;;;;;3.30;1.47;;;10.70;99.90;;;;;;5049676;28;20213;-61
2021/05/06 08:17:59;;;;;;;1.60;1.50;;;10.80;99.90;;;;;;5050262;28;20193;-63
2021/05/06 08:20:26;;;;;;;1.53;1.20;;;11.10;99.90;;;;;;5050119;28;20571;-61
2021/05/06 08:22:53;;;;;;;2.30;1.40;;;11.40;99.90;;;;;;5049764;28;20315;-63
2021/05/06 08:25:23;;;;;;;1.70;1.20;;;11.80;99.90;;;;;;5050013;28;20243;-61
2021/05/06 08:27:50;;;;;;;1.60;1.37;;;11.90;99.90;;;;;;5049402;28;20241;-61
2021/05/06 08:30:19;;;;;;;1.23;1.13;;;12.00;99.90;;;;;;5050059;28;20267;-63
2021/05/06 08:32:46;;;;;;;3.97;1.40;;;12.00;99.90;;;;;;5049700;28;20198;-68
2021/05/06 08:35:13;;;;;;;3.87;1.67;;;12.00;99.90;;;;;;5049754;28;20649;-62
2021/05/06 08:37:40;;;;;;;2.40;1.10;;;11.80;99.90;;;;;;5049825;28;20241;-69
2021/05/06 08:40:08;;;;;;;1.90;1.20;;;11.70;99.90;;;;;;5049481;28;20292;-67
2021/05/06 08:42:35;;;;;;;3.23;1.17;;;11.60;99.90;;;;;;5049777;28;20261;-68
2021/05/06 08:45:04;;;;;;;6.33;1.27;;;11.70;99.90;;;;;;5049252;28;20208;-65
2021/05/06 08:47:33;;;;;;;4.30;1.23;;;12.00;99.90;;;;;;5049789;28;20662;-67
2021/05/06 08:50:01;;;;;;;2.20;1.23;;;12.10;99.90;;;;;;5049299;28;20213;-57
2021/05/06 08:52:29;;;;;;;2.93;1.53;;;12.20;99.90;;;;;;5049761;28;20201;-55
2021/05/06 08:54:57;;;;;;;1.73;1.23;;;12.20;99.90;;;;;;5049418;28;20707;-54
2021/05/06 08:57:26;;;;;;;2.73;1.20;;;12.20;99.90;;;;;;5050361;28;20263;-55
2021/05/06 08:59:54;;;;;;;1.50;1.13;;;12.10;99.90;;;;;;5049440;28;20322;-54
2021/05/06 09:02:21;;;;;;;2.63;1.27;;;11.80;99.90;;;;;;5049811;28;20209;-55
2021/05/06 09:04:49;;;;;;;2.00;1.10;;;11.40;99.90;;;;;;5049318;28;20201;-51
2021/05/06 09:07:16;;;;;;;3.13;1.20;;;11.20;99.90;;;;;;5049320;28;20304;-54
2021/05/06 09:09:47;;;;;;;2.03;1.27;;;11.10;99.90;;;;;;5049579;28;20224;-53
2021/05/06 09:12:14;;;;;;;1.77;1.13;;;11.30;99.90;;;;;;5049599;28;20280;-52
2021/05/06 09:14:42;;;;;;;2.47;1.50;;;11.70;99.90;;;;;;5049208;28;20225;-51
2021/05/06 09:17:24;;;;;;;3.73;1.37;;;12.00;99.90;;;;;;5049361;28;20295;-53
2021/05/06 09:19:56;;;;;;;1.40;1.10;;;12.00;99.90;;;;;;5049576;28;20258;-58
2021/05/06 09:22:34;;;;;;;2.30;1.20;;;12.30;99.90;;;;;;5049299;28;20185;-52
2021/05/06 09:25:25;;;;;;;3.27;1.40;;;12.50;99.90;;;;;;5049191;28;20251;-54
2021/05/06 09:28:13;;;;;;;1.20;1.10;;;12.40;99.90;;;;;;5048522;28;20233;-55
2021/05/06 09:30:53;;;;;;;2.50;1.13;;;12.30;99.90;;;;;;5048890;28;20235;-55
2021/05/06 09:33:31;;;;;;;2.47;1.00;;;12.40;99.90;;;;;;5049223;28;20247;-58
2021/05/06 09:36:08;;;;;;;1.70;1.23;;;12.60;99.90;;;;;;5049320;28;20616;-56
2021/05/06 09:38:38;;;;;;;2.50;1.10;;;12.80;99.90;;;;;;5048898;28;20220;-55
2021/05/06 09:41:06;;;;;;;2.57;1.20;;;12.70;99.90;;;;;;5048842;28;20300;-55
2021/05/06 09:43:39;;;;;;;2.13;1.00;;;12.80;99.90;;;;;;5048697;28;20201;-57
2021/05/06 09:46:29;;;;;;;1.00;0.80;;;12.80;99.90;;;;;;5048624;28;20206;-60
2021/05/06 09:49:01;;;;;;;1.20;0.97;;;12.50;99.90;;;;;;5048843;28;20758;-54
2021/05/06 09:51:30;;;;;;;1.53;1.10;;;12.30;99.90;;;;;;5049164;28;20284;-53
2021/05/06 09:53:58;;;;;;;2.63;1.40;;;12.00;99.90;;;;;;5049067;28;20296;-55
2021/05/06 09:56:25;;;;;;;1.87;1.13;;;12.00;99.90;;;;;;5049024;28;20263;-53
2021/05/06 09:58:54;;;;;;;1.83;1.30;;;12.00;99.90;;;;;;5048936;28;20202;-55
2021/05/06 10:01:23;;;;;;;2.33;1.50;;;12.00;99.90;;;;;;5048748;28;20221;-50
2021/05/06 10:03:50;;;;;;;2.57;1.27;;;12.00;99.90;;;;;;5048832;28;20290;-54
2021/05/06 10:06:20;;;;;;;3.10;1.20;;;12.10;99.90;;;;;;5048598;28;20197;-56
2021/05/06 10:08:48;;;;;;;3.03;1.10;;;12.10;99.90;;;;;;5048486;28;20316;-55
2021/05/06 10:11:16;;;;;;;2.93;1.57;;;12.00;99.90;;;;;;5048580;28;20596;-55
2021/05/06 10:13:44;;;;;;;2.57;1.30;;;11.80;99.90;;;;;;5048773;28;20628;-56
2021/05/06 10:16:13;;;;;;;1.67;1.10;;;11.60;99.90;;;;;;5048465;28;20296;-54
2021/05/06 10:18:42;;;;;;;2.33;1.37;;;11.60;99.90;;;;;;5048843;28;20637;-56
2021/05/06 10:21:10;;;;;;;2.03;1.30;;;11.70;99.90;;;;;;5048713;28;20284;-53
2021/05/06 10:23:38;;;;;;;2.63;1.50;;;11.90;99.90;;;;;;5048522;28;20233;-55
2021/05/06 10:26:06;;;;;;;1.70;1.13;;;12.20;99.90;;;;;;5048128;28;20312;-54
2021/05/06 10:28:34;;;;;;;1.50;1.40;;;12.20;99.90;;;;;;5048644;28;20205;-51
2021/05/06 10:31:02;;;;;;;2.53;1.30;;;12.30;99.90;;;;;;5048073;28;20754;-53
2021/05/06 10:33:30;;;;;;;1.83;1.30;;;12.30;99.90;;;;;;5048337;28;20209;-53
2021/05/06 10:35:57;;;;;;;2.23;1.33;;;12.30;99.90;;;;;;5051125;28;20669;-56
2021/05/06 10:38:30;;;;;;;1.57;1.47;;;12.60;99.90;;;;;;5051903;28;20301;-56
2021/05/06 10:40:58;;;;;;;2.07;1.10;;;12.80;99.90;;;;;;5052064;28;20289;-53
2021/05/06 10:43:28;;;;;;;3.00;1.30;;;12.90;99.90;;;;;;5051865;28;20642;-54
2021/05/06 10:45:58;;;;;;;2.90;1.13;;;13.10;99.90;;;;;;5052077;28;20235;-55
2021/05/06 10:48:55;;;;;;;1.37;1.20;;;13.30;99.90;;;;;;5051774;28;20226;-54
2021/05/06 10:51:39;;;;;;;1.20;1.10;;;13.40;99.90;;;;;;5051302;28;20245;-53
2021/05/06 10:54:31;;;;;;;2.90;1.17;;;13.60;99.90;;;;;;5051688;28;20221;-53
2021/05/06 10:56:59;;;;;;;1.47;1.00;;;13.70;99.90;;;;;;5032297;28;20202;-56
2021/05/06 10:59:28;;;;;;;2.27;1.27;;;13.60;99.90;;;;;;5031299;28;20206;-54
2021/05/06 11:01:55;;;;;;;4.63;1.33;;;13.50;99.90;;;;;;5031373;28;20198;-57
2021/05/06 11:04:34;;;;;;;1.50;1.00;;;13.60;99.90;;;;;;5051319;28;20224;-53
2021/05/06 11:07:12;;;;;;;3.23;1.17;;;13.40;99.90;;;;;;5051778;28;20201;-54
2021/05/06 11:10:00;;;;;;;1.40;1.00;;;13.20;99.90;;;;;;5051536;28;20220;-55
2021/05/06 11:12:36;;;;;;;2.80;1.10;;;13.20;99.90;;;;;;5031767;28;20237;-57
2021/05/06 11:15:28;;;;;;;3.27;1.60;;;13.30;99.90;;;;;;5030256;28;20618;-54
2021/05/06 11:17:59;;;;;;;4.80;1.20;;;13.50;99.90;;;;;;5031493;28;20226;-51
2021/05/06 11:20:52;;;;;;;1.43;1.17;;;13.60;99.90;;;;;;5031634;28;20191;-53
2021/05/06 11:23:30;;;;;;;2.17;1.10;;;13.50;99.90;;;;;;5031108;28;20560;-52
2021/05/06 11:26:08;;;;;;;2.03;0.90;;;13.20;99.90;;;;;;5031241;28;20225;-56
2021/05/06 11:28:46;;;;;;;3.40;1.20;;;12.90;99.90;;;;;;5030766;28;20217;-53
2021/05/06 11:31:34;;;;;;;2.50;1.03;;;12.90;99.90;;;;;;5030849;28;20194;-53
2021/05/06 11:34:27;;;;;;;1.97;1.00;;;12.70;99.90;;;;;;5030961;28;20202;-55
2021/05/06 11:37:10;;;;;;;1.33;0.80;;;12.80;99.90;;;;;;5031584;28;20208;-56
2021/05/06 11:39:47;;;;;;;2.97;0.83;;;12.70;99.90;;;;;;5031365;28;20191;-53
2021/05/06 11:42:14;;;;;;;2.40;1.00;;;12.70;99.90;;;;;;5031143;28;20190;-53
2021/05/06 11:44:41;;;;;;;1.73;1.07;;;12.70;99.90;;;;;;5030834;28;20359;-51
2021/05/06 11:47:09;;;;;;;1.13;1.00;;;12.70;99.90;;;;;;5030784;28;20209;-52
2021/05/06 11:49:36;;;;;;;1.50;1.13;;;12.60;99.90;;;;;;5030711;28;20701;-56
2021/05/06 11:52:04;;;;;;;3.23;1.17;;;12.60;99.90;;;;;;5030685;28;20198;-64
2021/05/06 11:54:30;;;;;;;2.67;1.10;;;12.60;99.90;;;;;;5031075;28;20605;-68
2021/05/06 11:57:00;;;;;;;1.30;1.00;;;12.60;99.90;;;;;;5030663;28;20692;-65
2021/05/06 11:59:28;;;;;;;2.03;1.00;;;12.70;99.90;;;;;;5030474;28;20289;-63
2021/05/06 12:01:57;;;;;;;2.80;1.57;;;12.90;99.90;;;;;;5030435;28;20205;-62
2021/05/06 12:04:26;;;;;;;2.70;1.17;;;13.00;99.90;;;;;;5050759;28;20205;-63
2021/05/06 12:06:54;;;;;;;2.10;1.00;;;13.00;99.90;;;;;;5050498;28;20794;-62
2021/05/06 12:09:22;;;;;;;2.47;1.47;;;13.00;99.90;;;;;;5050498;28;20229;-64
2021/05/06 12:11:49;;;;;;;2.70;1.30;;;13.10;99.90;;;;;;5050533;28;20299;-68
2021/05/06 12:14:17;;;;;;;2.07;1.30;;;13.20;99.90;;;;;;5050341;28;20255;-66
2021/05/06 12:16:44;;;;;;;2.53;1.10;;;13.40;99.90;;;;;;5050224;28;20213;-76
2021/05/06 12:19:13;;;;;;;3.07;1.27;;;13.60;99.90;;;;;;5050107;28;20193;-63
2021/05/06 12:21:44;;;;;;;4.78;1.40;;;13.90;99.90;;;;;;5050088;28;20237;-64
2021/05/06 12:24:24;;;;;;;1.37;0.90;;;14.20;99.90;;;;;;5050458;28;20296;-65
2021/05/06 12:26:51;;;;;;;1.40;0.97;;;14.20;99.90;;;;;;5049957;28;20323;-63
2021/05/06 12:29:22;;;;;;;1.63;1.00;;;14.20;99.90;;;;;;5049472;28;20320;-65
2021/05/06 12:31:50;;;;;;;1.03;0.70;;;14.50;99.90;;;;;;5050050;28;20257;-67
2021/05/06 12:34:19;;;;;;;2.75;1.15;;;14.60;99.90;;;;;;5050007;28;20204;-66
2021/05/06 12:36:56;;;;;;;1.13;0.90;;;14.60;99.90;;;;;;5049923;28;20208;-65
2021/05/06 12:39:24;;;;;;;1.98;1.23;;;14.50;99.90;;;;;;5049766;28;20185;-65
2021/05/06 12:41:55;;;;;;;2.70;0.90;;;14.40;99.90;;;;;;5049675;28;20240;-62
2021/05/06 12:44:36;;;;;;;2.35;1.08;;;14.20;99.90;;;;;;5049499;28;20201;-64
2021/05/06 12:47:21;;;;;;;3.70;1.30;;;14.20;99.90;;;;;;5049166;28;20739;-61
2021/05/06 12:49:50;;;;;;;1.83;0.90;;;14.00;99.90;;;;;;5049623;28;20526;-61
2021/05/06 12:52:31;;;;;;;2.03;1.00;;;14.10;99.90;;;;;;5049899;28;20244;-69
2021/05/06 12:55:00;;;;;;;1.30;1.20;;;14.20;99.90;;;;;;5049766;28;20283;-71
2021/05/06 12:57:28;;;;;;;2.73;0.93;;;14.10;99.90;;;;;;5049508;28;20245;-66
2021/05/06 12:59:55;;;;;;;1.40;0.80;;;14.10;99.90;;;;;;5049764;28;20225;-65
2021/05/06 13:02:22;;;;;;;2.70;1.03;;;14.10;99.90;;;;;;5049464;28;20294;-65
2021/05/06 13:04:51;;;;;;;1.20;1.00;;;14.00;99.90;;;;;;5049310;28;20224;-65
2021/05/06 13:07:19;;;;;;;1.00;0.90;;;14.00;99.90;;;;;;5049411;28;20251;-68
2021/05/06 13:09:49;;;;;;;2.33;0.80;;;14.10;99.90;;;;;;5049576;28;20307;-63
2021/05/06 13:12:17;;;;;;;2.13;1.00;;;13.90;99.90;;;;;;5049503;28;20205;-66
2021/05/06 13:14:48;;;;;;;1.40;1.00;;;13.60;99.90;;;;;;5049192;28;20220;-67
2021/05/06 13:17:25;;;;;;;1.63;0.80;;;13.60;99.90;;;;;;5049300;28;20287;-65
2021/05/06 13:19:53;;;;;;;1.63;1.10;;;13.60;99.90;;;;;;5049117;28;20204;-66
2021/05/06 13:22:20;;;;;;;1.83;1.13;;;13.60;99.90;;;;;;5049615;28;20224;-67
2021/05/06 13:24:51;;;;;;;3.23;1.00;;;13.80;99.90;;;;;;5049050;28;20593;-64
2021/05/06 13:27:20;;;;;;;1.80;1.17;;;13.90;99.90;;;;;;5048956;28;20239;-72
2021/05/06 13:29:59;;;;;;;2.03;1.08;;;13.90;99.90;;;;;;5049186;28;20202;-71
2021/05/06 13:32:33;;;;;;;2.10;1.30;;;13.80;99.90;;;;;;5048688;28;20201;-61
2021/05/06 13:35:01;;;;;;;1.30;1.20;;;13.70;99.90;;;;;;5049215;28;20304;-61
2021/05/06 13:37:35;;;;;;;1.30;1.20;;;13.60;99.90;;;;;;5048761;28;20644;-66
2021/05/06 13:40:04;;;;;;;2.10;1.03;;;13.50;99.90;;;;;;5048964;28;20254;-54
2021/05/06 13:42:31;;;;;;;3.80;1.30;;;13.50;99.90;;;;;;5049065;28;20208;-56
2021/05/06 13:44:59;;;;;;;4.10;1.27;;;13.60;99.90;;;;;;5049032;28;20284;-54
2021/05/06 13:47:26;;;;;;;2.17;1.25;;;13.70;99.90;;;;;;5048879;28;20240;-55
2021/05/06 13:49:53;;;;;;;3.35;1.50;;;13.80;99.90;;;;;;5049055;28;20256;-55
2021/05/06 13:52:24;;;;;;;2.13;0.90;;;13.80;99.90;;;;;;5048669;28;20209;-54
2021/05/06 13:54:51;;;;;;;3.10;1.20;;;13.90;99.90;;;;;;5049185;28;20874;-57
2021/05/06 13:57:18;;;;;;;2.85;0.95;;;14.00;99.90;;;;;;5048459;28;20205;-54
2021/05/06 13:59:46;;;;;;;2.08;1.10;;;14.10;99.90;;;;;;5048699;28;20611;-49
2021/05/06 14:02:15;;;;;;;2.58;1.27;;;14.20;99.90;;;;;;5048881;28;20205;-50
2021/05/06 14:04:43;;;;;;;1.25;0.95;;;14.30;99.90;;;;;;5048821;28;20552;-54
2021/05/06 14:07:10;;;;;;;2.38;1.15;;;14.40;99.90;;;;;;5048650;28;20249;-58
2021/05/06 14:09:37;;;;;;;1.67;1.07;;;14.40;99.90;;;;;;5050045;28;20312;-54
2021/05/06 14:12:04;;;;;;;1.85;1.00;;;14.40;99.90;;;;;;5052850;28;20201;-54
2021/05/06 14:14:31;;;;;;;2.00;1.23;;;14.40;99.90;;;;;;5052445;28;20284;-56
2021/05/06 14:16:58;;;;;;;2.60;1.30;;;14.30;99.90;;;;;;5052361;28;20645;-53
2021/05/06 14:19:25;;;;;;;1.77;1.10;;;14.10;99.90;;;;;;5052451;28;20281;-52
2021/05/06 14:21:53;;;;;;;3.63;1.10;;;13.90;99.90;;;;;;5052262;28;20233;-54
2021/05/06 14:24:20;;;;;;;1.23;0.88;;;13.80;99.90;;;;;;5052322;28;20229;-54
2021/05/06 14:26:49;;;;;;;2.53;0.90;;;13.70;99.90;;;;;;5051985;28;20679;-53
2021/05/06 14:29:17;;;;;;;1.60;0.90;;;13.80;99.90;;;;;;5052026;28;20320;-56
2021/05/06 14:31:46;;;;;;;3.50;1.40;;;13.90;99.90;;;;;;5051739;28;20216;-50
2021/05/06 14:34:13;;;;;;;4.33;1.20;;;14.00;99.90;;;;;;5052179;28;20204;-52
2021/05/06 14:36:40;;;;;;;1.27;1.00;;;14.10;99.90;;;;;;5051932;28;20205;-51
2021/05/06 14:39:08;;;;;;;2.30;1.30;;;14.20;99.90;;;;;;5051644;28;20293;-55
2021/05/06 14:41:38;;;;;;;1.67;1.10;;;14.00;99.90;;;;;;5051838;28;20255;-55
2021/05/06 14:44:05;;;;;;;1.15;0.93;;;13.80;99.90;;;;;;5051588;28;20206;-54
2021/05/06 14:46:32;;;;;;;1.20;1.10;;;13.50;99.90;;;;;;5051693;28;20201;-52
2021/05/06 14:49:00;;;;;;;1.57;1.47;;;13.40;99.90;;;;;;5051467;28;20213;-55
2021/05/06 14:51:26;;;;;;;1.63;1.20;;;13.30;99.90;;;;;;5051891;28;20207;-54
2021/05/06 14:53:53;;;;;;;1.67;1.27;;;13.40;99.90;;;;;;5051497;28;20895;-55
2021/05/06 14:56:21;;;;;;;2.23;1.10;;;13.50;99.90;;;;;;5051298;28;20212;-58
2021/05/06 14:58:47;;;;;;;2.73;1.10;;;13.70;99.90;;;;;;5051080;28;20668;-58
2021/05/06 15:01:14;;;;;;;2.25;1.13;;;14.00;99.90;;;;;;5050851;28;20240;-58
2021/05/06 15:03:41;;;;;;;3.08;1.50;;;14.20;99.90;;;;;;5051460;28;20281;-58
2021/05/06 15:06:09;;;;;;;1.83;1.20;;;14.20;99.90;;;;;;5051401;28;20692;-59
2021/05/06 15:08:42;;;;;;;2.58;1.70;;;14.10;99.90;;;;;;5051191;28;20215;-56